KIPL/IPL METAR and TAF weather

Enter ICAO airport designator
Station Type Date Time Source
KIPL METAR 2021/08/05 03:53 UTC NOAA

KIPL 050353Z AUTO 25013KT 10SM FEW110 39/13 A2963 RMK AO2 SLP035 T03890128


Station Type Date Time Source
KIPL Decoded METAR 2021/08/05 03:53 UTC NOAA

Imperial, Imperial County Airport, CA, United States (KIPL) 32-50-03N 115-34-43W -15M
Aug 04, 2021 - 11:53 PM EDT / 2021.08.05 0353 UTC
Wind: from the WSW (250 degrees) at 15 MPH (13 KT):0
Visibility: 10 mile(s):0
Sky conditions: mostly clear
Temperature: 102.0 F (38.9 C)
Heat index: 100.6 F (38.1 C):1
Dew Point: 55.0 F (12.8 C)
Relative Humidity: 21%
Pressure (altimeter): 29.63 in. Hg (1003 hPa)
ob: KIPL 050353Z AUTO 25013KT 10SM FEW110 39/13 A2963 RMK AO2 SLP035 T03890128
cycle: 4

Station Type Date Time Source
KIPL TAF 2021/08/04 18:22 UTC NOAA

TAF KIPL 041720Z 0418/0518 19006KT P6SM SKC
FM050200 26010G18KT P6SM SKC
FM050500 27008KT P6SM FEW250
FM051100 16009KT P6SM FEW250

Example: see airport list